Nearby METAR Reports

 

EGNM - Leeds And Bradford, United Kingdom
Distance from station: N 11mi, 18km
Updated: 04/12/2020 21:20
NOT Current
Fog, Mostly cloudy
Fog, Mostly cloudy
 Wind from E
Wind: E 12 mph , 19 km/h
Temperature: 3°C
Wind Chill: -2°C
Dew Point: 3°C
Humidity: 100%
Barometer: 976 hPa
Summary: Fog
Clouds: Mostly cloudy
Visibility: 0 mile , 1 km
Cloud details: Partly cloudy 30 m
Mostly cloudy 91 m
2020/12/04 21:20 EGNM 042120Z 08010KT 0800 FG SCT001 BKN003 03/03 Q0976
EGXU - Linton-On-Ouse, United Kingdom
Distance from station: NNE 28mi, 45km
Updated: 05/12/2020 05:50
Mostly cloudy
Mostly cloudy
 Wind from ENE
Wind: ENE 10 mph , 17 km/h
Temperature: 4°C
Wind Chill: 0°C
Dew Point: 2°C
Humidity: 87%
Barometer: 990 hPa
Clouds: Mostly cloudy
Visibility: 6 miles , 10 km
Cloud details: Mostly cloudy 1280 m
2020/12/05 05:50 EGXU 050550Z AUTO 07009KT 9999 BKN042/// 04/02 Q0990
 
EGCN - Doncaster Sheffield, United Kingdom
Distance from station: ESE 30mi, 45km
Updated: 05/12/2020 06:20
Mostly cloudy
Mostly cloudy
 Wind from E
Wind: E 6 mph , 9 km/h
Temperature: 3°C
Wind Chill: 0°C
Dew Point: 2°C
Humidity: 93%
Barometer: 991 hPa
Clouds: Mostly cloudy
Visibility: 6 miles , 10 km
Cloud details: Mostly cloudy 1372 m
2020/12/05 06:20 EGCN 050620Z 09005KT 050V130 9999 BKN045 03/02 Q0991
EGXZ - Topcliffe RAF, United Kingdom
Distance from station: NNE 36mi, 57km
Updated: 05/12/2020 05:50
Mostly cloudy
Mostly cloudy
 Wind from E
Wind: E 10 mph , 17 km/h
Temperature: 4°C
Wind Chill: 0°C
Dew Point: 2°C
Humidity: 87%
Barometer: 990 hPa
Clouds: Mostly cloudy
Visibility: 6 miles , 10 km
Cloud details: Partly cloudy 1524 m
Mostly cloudy 3962 m
2020/12/05 05:50 EGXZ 050550Z AUTO 10009KT 9999 SCT050/// BKN130/// 04/02 Q0990
 
EGCC - Manchester Intl, United Kingdom
Distance from station: SW 36mi, 58km
Updated: 05/12/2020 06:20
Light rain, Thunderstorm
Light rain, Thunderstorm
 Wind from E
Wind: E 9 mph , 15 km/h
Temperature: 3°C
Wind Chill: -1°C
Dew Point: 2°C
Humidity: 93%
Barometer: 988 hPa
Summary: Light rain
Clouds: Thunderstorm
Visibility: 6 miles , 10 km
Cloud details: Few Clouds 732 m
Mostly cloudy 884 m
Overcast 1372 m
2020/12/05 06:20 EGCC 050620Z AUTO 08008KT 9999 -RA FEW024/// BKN029/// OVC045/// //////TCU 03/02 Q0988
EGXE - Leeming RAF, United Kingdom
Distance from station: N 40mi, 65km
Updated: 05/12/2020 05:50
Overcast
Overcast
 Wind from E
Wind: E 5 mph , 7 km/h
Temperature: 4°C
Wind Chill: 2°C
Dew Point: 2°C
Humidity: 87%
Barometer: 990 hPa
Clouds: Overcast
Visibility: 6 miles , 10 km
Cloud details: Few Clouds 1524 m
Overcast 3658 m
2020/12/05 05:50 EGXE 050550Z AUTO 08004KT 9999 FEW050/// OVC120/// 04/02 Q0990